createdAt,value
2022-11-21T00:01:20.586Z,22.67
2022-11-21T00:03:49.574Z,24.05
2022-11-21T00:06:18.604Z,23.58
2022-11-21T00:08:48.964Z,24.77
2022-11-21T00:11:18.081Z,23.63
2022-11-21T00:13:46.357Z,23.40
2022-11-21T00:16:16.727Z,22.50
2022-11-21T00:18:45.465Z,22.08
2022-11-21T00:21:16.367Z,24.00
2022-11-21T00:23:45.044Z,22.35
2022-11-21T00:26:16.901Z,23.88
2022-11-21T00:28:46.192Z,22.55
2022-11-21T00:31:20.753Z,23.65
2022-11-21T00:33:51.163Z,23.67
2022-11-21T00:36:19.757Z,21.90
2022-11-21T00:38:48.363Z,23.00
2022-11-21T00:41:18.001Z,21.92
2022-11-21T00:43:46.763Z,23.02
2022-11-21T00:46:15.285Z,23.67
2022-11-21T00:48:44.601Z,23.25
2022-11-21T00:51:13.047Z,22.63
2022-11-21T00:53:42.615Z,23.35
2022-11-21T00:56:11.181Z,21.75
2022-11-21T00:58:41.992Z,23.92
2022-11-21T01:01:11.974Z,22.08
2022-11-21T01:03:40.530Z,24.98
2022-11-21T01:06:11.154Z,22.13
2022-11-21T01:08:41.467Z,24.13
2022-11-21T01:11:11.520Z,23.23
2022-11-21T01:13:42.539Z,23.55
2022-11-21T01:16:14.186Z,21.10
2022-11-21T01:18:42.762Z,23.00
2022-11-21T01:21:15.721Z,22.30
2022-11-21T01:23:44.628Z,21.98
2022-11-21T01:26:15.276Z,22.35
2022-11-21T01:28:46.156Z,21.77
2022-11-21T01:31:17.026Z,22.17
2022-11-21T01:33:46.231Z,22.00
2022-11-21T01:36:16.588Z,21.67
2022-11-21T01:38:46.803Z,22.40
2022-11-21T01:41:18.124Z,22.75
2022-11-21T01:43:48.911Z,21.20
2022-11-21T01:46:19.358Z,21.30
2022-11-21T01:48:54.058Z,21.35
2022-11-21T01:51:27.479Z,21.13
2022-11-21T01:53:59.963Z,21.02
2022-11-21T01:56:30.547Z,22.13
2022-11-21T01:59:04.958Z,21.33
2022-11-21T02:01:36.326Z,19.98
2022-11-21T02:04:07.909Z,21.50
2022-11-21T02:06:37.995Z,22.15
2022-11-21T02:09:07.252Z,21.58
2022-11-21T02:12:33.627Z,21.58
2022-11-21T02:15:03.492Z,19.92
2022-11-21T02:17:33.916Z,21.38
2022-11-21T02:20:04.706Z,20.58
2022-11-21T02:22:41.629Z,21.38
2022-11-21T02:25:14.449Z,18.70
2022-11-21T02:27:43.171Z,19.80
2022-11-21T02:30:13.476Z,20.20
2022-11-21T02:32:46.898Z,22.08
2022-11-21T02:35:16.539Z,22.33
2022-11-21T02:37:48.308Z,23.27
2022-11-21T02:40:22.359Z,20.30
2022-11-21T02:43:00.674Z,22.15
2022-11-21T02:45:33.645Z,20.90
2022-11-21T02:48:04.305Z,20.63
2022-11-21T02:50:35.297Z,22.73
2022-11-21T02:53:04.546Z,20.77
2022-11-21T02:55:35.169Z,22.55
2022-11-21T02:58:05.506Z,21.33
2022-11-21T03:00:36.907Z,20.40
2022-11-21T03:03:05.506Z,19.85
2022-11-21T03:05:34.475Z,20.83
2022-11-21T03:08:02.921Z,21.63
2022-11-21T03:10:31.514Z,22.35
2022-11-21T03:13:04.727Z,23.23
2022-11-21T03:15:35.711Z,23.00
2022-11-21T03:18:05.046Z,20.75
2022-11-21T03:20:35.655Z,21.05
2022-11-21T03:23:04.422Z,23.52
2022-11-21T03:25:32.801Z,20.75
2022-11-21T03:28:02.585Z,20.45
2022-11-21T03:30:31.039Z,18.40
2022-11-21T03:33:00.508Z,20.23
2022-11-21T03:35:28.850Z,20.38
2022-11-21T03:37:57.150Z,18.50
2022-11-21T03:40:25.929Z,19.52
2022-11-21T03:42:54.400Z,18.52
2022-11-21T03:45:24.250Z,18.73
2022-11-21T03:47:53.134Z,18.95
2022-11-21T03:50:21.851Z,18.35
2022-11-21T03:52:50.256Z,18.83
2022-11-21T03:55:19.726Z,18.67
2022-11-21T03:57:48.113Z,17.77
2022-11-21T04:00:17.731Z,18.40
2022-11-21T04:02:47.493Z,17.75
2022-11-21T04:05:16.899Z,18.20
2022-11-21T04:07:47.743Z,18.67
2022-11-21T04:10:16.830Z,18.35
2022-11-21T04:12:46.824Z,16.45
2022-11-21T04:15:15.251Z,17.55
2022-11-21T04:17:43.835Z,17.80
2022-11-21T04:20:13.818Z,16.95
2022-11-21T04:22:42.337Z,17.95
2022-11-21T04:25:11.271Z,18.05
2022-11-21T04:27:39.667Z,16.85
2022-11-21T04:30:09.050Z,22.25
2022-11-21T04:32:37.517Z,21.02
2022-11-21T04:35:06.760Z,22.38
2022-11-21T04:37:36.596Z,19.10
2022-11-21T04:40:06.079Z,18.38
2022-11-21T04:42:34.396Z,19.85
2022-11-21T04:45:03.272Z,17.92
2022-11-21T04:47:31.754Z,17.77
2022-11-21T04:50:00.246Z,19.08
2022-11-21T04:52:28.779Z,19.13
2022-11-21T04:54:58.522Z,18.10
2022-11-21T04:57:29.431Z,17.92
2022-11-21T04:59:58.135Z,16.15
2022-11-21T05:02:26.408Z,18.38
2022-11-21T05:04:55.938Z,17.60
2022-11-21T05:07:24.393Z,17.63
2022-11-21T05:09:52.928Z,16.70
2022-11-21T05:12:40.415Z,15.27
2022-11-21T05:15:09.272Z,15.32
2022-11-21T05:17:37.878Z,16.15
2022-11-21T05:20:07.425Z,16.42
2022-11-21T05:22:36.291Z,15.38
2022-11-21T05:25:05.616Z,16.75
2022-11-21T05:27:35.429Z,15.57
2022-11-21T05:30:03.862Z,15.70
2022-11-21T05:32:32.416Z,16.20
2022-11-21T05:35:00.887Z,17.05
2022-11-21T05:37:29.243Z,15.18
2022-11-21T05:39:57.863Z,15.85
2022-11-21T05:42:40.133Z,17.80
2022-11-21T05:45:11.157Z,17.17
2022-11-21T05:47:39.867Z,15.45
2022-11-21T05:50:09.728Z,16.60
2022-11-21T05:52:48.459Z,19.63
2022-11-21T05:55:17.177Z,19.42
2022-11-21T05:57:45.685Z,17.17
2022-11-21T06:00:16.978Z,18.35
2022-11-21T06:05:31.736Z,15.38
2022-11-21T06:08:00.109Z,15.60
2022-11-21T06:10:28.936Z,16.65
2022-11-21T06:13:01.046Z,14.52
2022-11-21T06:15:31.182Z,15.65
2022-11-21T06:18:01.938Z,16.38
2022-11-21T06:20:30.619Z,17.55
2022-11-21T06:22:59.181Z,16.10
2022-11-21T06:25:27.763Z,18.55
2022-11-21T06:27:56.632Z,16.17
2022-11-21T06:30:26.131Z,16.75
2022-11-21T06:32:56.218Z,16.02
2022-11-21T06:35:24.902Z,14.68
2022-11-21T06:37:53.960Z,16.48
2022-11-21T06:40:22.398Z,16.63
2022-11-21T06:42:50.956Z,15.48
2022-11-21T06:45:19.691Z,17.05
2022-11-21T06:47:48.663Z,17.10
2022-11-21T06:50:18.971Z,16.13
2022-11-21T06:52:47.345Z,14.88
2022-11-21T06:55:16.088Z,17.52
2022-11-21T06:57:45.043Z,17.50
2022-11-21T07:00:14.997Z,17.25
2022-11-21T07:02:43.394Z,17.73
2022-11-21T07:05:11.901Z,16.40
2022-11-21T07:07:41.756Z,16.05
2022-11-21T07:10:11.350Z,17.52
2022-11-21T07:12:57.085Z,19.20
2022-11-21T07:15:25.972Z,17.25
2022-11-21T07:17:54.577Z,16.77
2022-11-21T07:20:24.166Z,17.80
2022-11-21T07:22:56.824Z,18.08
2022-11-21T07:25:25.634Z,23.88
2022-11-21T07:27:53.996Z,25.30
2022-11-21T07:30:23.517Z,27.77
2022-11-21T07:32:56.661Z,25.05
2022-11-21T07:35:25.329Z,23.20
2022-11-21T07:37:54.201Z,22.73
2022-11-21T07:40:24.415Z,23.38
2022-11-21T07:42:53.713Z,23.10
2022-11-21T07:45:24.629Z,27.25
2022-11-21T07:47:59.093Z,25.17
2022-11-21T07:50:27.942Z,20.52
2022-11-21T07:52:59.411Z,20.15
2022-11-21T07:55:30.415Z,21.13
2022-11-21T07:58:00.757Z,20.52
2022-11-21T08:00:31.264Z,18.60
2022-11-21T08:03:00.570Z,21.33
2022-11-21T08:05:29.087Z,20.35
2022-11-21T08:07:57.563Z,20.77
2022-11-21T08:10:25.963Z,19.70
2022-11-21T08:12:56.029Z,18.75
2022-11-21T08:15:25.462Z,22.20
2022-11-21T08:17:54.190Z,19.98
2022-11-21T08:20:22.494Z,19.25
2022-11-21T08:22:51.016Z,20.58
2022-11-21T08:25:19.529Z,19.15
2022-11-21T08:27:48.260Z,19.58
2022-11-21T08:30:18.403Z,22.00
2022-11-21T08:32:47.000Z,22.38
2022-11-21T08:35:15.936Z,23.67
2022-11-21T08:37:44.632Z,23.75
2022-11-21T08:40:13.540Z,22.77
2022-11-21T08:42:42.202Z,21.90
2022-11-21T08:45:11.754Z,21.23
2022-11-21T08:47:44.148Z,22.13
2022-11-21T08:50:13.234Z,22.55
2022-11-21T08:52:41.737Z,23.80
2022-11-21T08:55:11.146Z,25.10
2022-11-21T08:57:42.039Z,25.80
2022-11-21T09:00:13.670Z,24.33
2022-11-21T09:02:43.940Z,23.00
2022-11-21T09:05:13.857Z,21.70
2022-11-21T09:07:42.676Z,23.17
2022-11-21T09:10:11.920Z,24.63
2022-11-21T09:12:40.666Z,24.27
2022-11-21T09:15:29.459Z,25.08
2022-11-21T09:18:07.799Z,23.67
2022-11-21T09:20:40.944Z,24.15
2022-11-21T09:23:11.502Z,21.42
2022-11-21T09:25:42.517Z,22.13
2022-11-21T09:28:14.122Z,25.02
2022-11-21T09:30:43.855Z,25.40
2022-11-21T09:33:15.010Z,26.08
2022-11-21T09:35:44.759Z,23.40
2022-11-21T09:38:13.816Z,23.42
2022-11-21T09:40:46.519Z,23.15
2022-11-21T09:43:45.241Z,22.83
2022-11-21T09:46:16.897Z,22.20
2022-11-21T09:48:58.763Z,23.63
2022-11-21T09:54:04.077Z,23.15
2022-11-21T09:56:38.442Z,20.40
2022-11-21T09:59:21.375Z,23.10
2022-11-21T10:01:50.246Z,21.83
2022-11-21T10:04:20.722Z,22.20
2022-11-21T10:06:59.127Z,21.20
2022-11-21T10:09:42.769Z,19.75
2022-11-21T10:12:38.556Z,21.58
2022-11-21T10:15:24.988Z,20.38
2022-11-21T10:18:21.657Z,19.45
2022-11-21T10:21:01.549Z,20.70
2022-11-21T10:24:05.401Z,20.30
2022-11-21T10:26:43.450Z,18.17
2022-11-21T10:29:24.035Z,18.33
2022-11-21T10:31:57.701Z,19.10
2022-11-21T10:34:31.891Z,17.90
2022-11-21T10:37:12.413Z,19.20
2022-11-21T10:39:45.373Z,18.67
2022-11-21T10:42:28.937Z,17.85
2022-11-21T10:45:20.564Z,18.60
2022-11-21T10:47:50.758Z,18.02
2022-11-21T10:50:36.982Z,19.08
2022-11-21T10:53:38.519Z,19.52
2022-11-21T10:56:10.712Z,18.40
2022-11-21T10:58:45.902Z,18.13
2022-11-21T11:01:26.671Z,19.35
2022-11-21T11:04:43.737Z,20.35
2022-11-21T11:07:24.899Z,21.35
2022-11-21T11:10:15.251Z,23.20
2022-11-21T11:13:05.127Z,22.33
2022-11-21T11:16:04.951Z,20.52
2022-11-21T11:18:36.439Z,20.70
2022-11-21T11:21:16.002Z,19.33
2022-11-21T11:23:46.885Z,17.92
2022-11-21T11:26:26.540Z,16.52
2022-11-21T11:29:09.858Z,16.63
2022-11-21T11:31:43.302Z,16.45
2022-11-21T11:34:17.144Z,16.33
2022-11-21T11:36:56.314Z,16.30
2022-11-21T11:39:39.806Z,17.20
2022-11-21T11:42:51.517Z,14.45
2022-11-21T11:45:53.996Z,14.93
2022-11-21T11:48:23.579Z,15.82
2022-11-21T11:50:56.562Z,15.48
2022-11-21T11:53:31.149Z,14.98
2022-11-21T11:56:06.639Z,14.38
2022-11-21T11:58:43.555Z,14.00
2022-11-21T12:01:16.177Z,15.18
2022-11-21T12:03:54.957Z,14.75
2022-11-21T12:07:04.120Z,14.30
2022-11-21T12:12:08.747Z,13.85
2022-11-21T12:15:15.633Z,15.77
2022-11-21T12:17:54.277Z,14.07
2022-11-21T12:20:26.240Z,14.60
2022-11-21T12:22:56.699Z,14.38
2022-11-21T12:25:31.620Z,13.57
2022-11-21T12:28:01.123Z,12.40
2022-11-21T12:31:04.970Z,14.55
2022-11-21T12:33:42.558Z,14.73
2022-11-21T12:36:30.224Z,13.90
2022-11-21T12:39:45.553Z,13.82
2022-11-21T12:42:41.598Z,15.70
2022-11-21T12:45:27.592Z,16.45
2022-11-21T12:48:52.587Z,14.35
2022-11-21T12:51:58.396Z,12.70
2022-11-21T12:55:02.641Z,12.10
2022-11-21T12:58:05.021Z,12.75
2022-11-21T13:00:44.648Z,12.57
2022-11-21T13:03:35.185Z,13.40
2022-11-21T13:06:07.044Z,13.68
2022-11-21T13:08:39.097Z,12.32
2022-11-21T13:14:06.407Z,12.18
2022-11-21T13:16:39.815Z,12.68
2022-11-21T13:19:22.043Z,16.05
2022-11-21T13:21:55.237Z,14.27
2022-11-21T13:25:00.613Z,20.40
2022-11-21T13:27:39.119Z,20.83
2022-11-21T13:30:37.827Z,14.20
2022-11-21T13:33:14.244Z,13.85
2022-11-21T13:36:09.415Z,13.98
2022-11-21T13:42:18.633Z,12.77
2022-11-21T13:44:49.401Z,13.77
2022-11-21T13:47:57.101Z,12.57
2022-11-21T13:51:19.515Z,12.73
2022-11-21T13:54:11.583Z,11.40
2022-11-21T13:56:54.601Z,12.50
2022-11-21T13:59:51.772Z,13.65
2022-11-21T14:02:48.177Z,14.77
2022-11-21T14:05:33.906Z,14.70
2022-11-21T14:08:22.865Z,15.98
2022-11-21T14:10:58.372Z,13.30
2022-11-21T14:13:35.583Z,14.45
2022-11-21T14:16:20.050Z,13.23
2022-11-21T14:18:53.065Z,13.18
2022-11-21T14:21:27.541Z,12.60
2022-11-21T14:24:06.030Z,12.60
2022-11-21T14:26:42.484Z,12.38
2022-11-21T14:29:23.340Z,12.48
2022-11-21T14:31:56.096Z,12.63
2022-11-21T14:34:36.204Z,12.40
2022-11-21T14:37:07.444Z,12.10
2022-11-21T14:39:44.803Z,13.02
2022-11-21T14:42:21.290Z,12.82
2022-11-21T14:45:10.545Z,14.63
2022-11-21T14:47:48.828Z,14.38
2022-11-21T14:50:32.389Z,14.57
2022-11-21T14:53:05.573Z,20.40
2022-11-21T14:55:37.877Z,16.17
2022-11-21T14:58:10.451Z,14.40
2022-11-21T15:03:29.239Z,12.68
2022-11-21T15:06:05.888Z,13.23
2022-11-21T15:11:27.230Z,12.77
2022-11-21T15:14:17.124Z,13.65
2022-11-21T15:16:49.200Z,12.38
2022-11-21T15:19:25.034Z,12.90
2022-11-21T15:21:55.555Z,13.18
2022-11-21T15:24:40.628Z,9.40
2022-11-21T15:27:35.098Z,12.00
2022-11-21T15:30:22.551Z,13.35
2022-11-21T15:33:11.758Z,12.63
2022-11-21T15:35:51.086Z,12.18
2022-11-21T15:38:25.823Z,12.60
2022-11-21T15:41:23.681Z,12.68
2022-11-21T15:43:54.651Z,12.68
2022-11-21T15:46:25.972Z,12.93
2022-11-21T15:48:56.323Z,12.50
2022-11-21T15:51:59.546Z,12.73
2022-11-21T15:54:18.037Z,12.48
2022-11-21T15:56:47.726Z,13.30
2022-11-21T15:59:17.516Z,12.77
2022-11-21T16:01:47.433Z,13.98
2022-11-21T16:04:20.954Z,13.65
2022-11-21T16:06:52.838Z,12.10
2022-11-21T16:09:21.709Z,12.10
2022-11-21T16:11:50.405Z,12.98
2022-11-21T16:14:19.680Z,12.40
2022-11-21T16:16:50.110Z,13.23
2022-11-21T16:19:18.946Z,13.77
2022-11-21T16:21:48.449Z,12.88
2022-11-21T16:24:18.079Z,12.80
2022-11-21T16:26:47.059Z,11.95
2022-11-21T16:29:15.693Z,11.88
2022-11-21T16:31:44.422Z,13.43
2022-11-21T16:34:14.708Z,26.17
2022-11-21T16:36:43.965Z,22.05
2022-11-21T16:39:17.748Z,23.10
2022-11-21T16:41:49.275Z,19.98
2022-11-21T16:44:21.065Z,16.77
2022-11-21T16:46:51.853Z,14.82
2022-11-21T16:49:22.007Z,14.63
2022-11-21T16:51:50.905Z,13.32
2022-11-21T16:54:19.471Z,13.00
2022-11-21T16:56:48.227Z,12.75
2022-11-21T16:59:17.118Z,12.85
2022-11-21T17:01:49.280Z,19.20
2022-11-21T17:04:18.656Z,17.73
2022-11-21T17:06:49.327Z,19.35
2022-11-21T17:11:47.486Z,15.95
2022-11-21T17:14:17.315Z,16.92
2022-11-21T17:16:46.265Z,14.38
2022-11-21T17:19:16.595Z,14.20
2022-11-21T17:21:45.040Z,16.85
2022-11-21T17:24:15.771Z,15.85
2022-11-21T17:26:45.032Z,17.60
2022-11-21T17:29:13.555Z,14.20
2022-11-21T17:31:42.979Z,15.43
2022-11-21T17:34:11.860Z,13.07
2022-11-21T17:36:40.666Z,13.80
2022-11-21T17:39:09.170Z,15.48
2022-11-21T17:41:39.757Z,13.85
2022-11-21T17:44:08.714Z,12.90
2022-11-21T17:46:37.230Z,12.45
2022-11-21T17:49:06.407Z,12.77
2022-11-21T17:51:35.547Z,14.00
2022-11-21T17:54:04.940Z,16.00
2022-11-21T17:56:35.423Z,13.70
2022-11-21T17:59:07.726Z,15.63
2022-11-21T18:01:37.468Z,15.98
2022-11-21T18:04:14.713Z,13.07
2022-11-21T18:06:43.980Z,12.95
2022-11-21T18:09:13.373Z,14.80
2022-11-21T18:11:42.061Z,13.65
2022-11-21T18:14:13.818Z,12.93
2022-11-21T18:16:51.144Z,12.57
2022-11-21T18:19:22.410Z,16.95
2022-11-21T18:21:51.996Z,17.27
2022-11-21T18:24:20.858Z,17.15
2022-11-21T18:26:49.640Z,16.23
2022-11-21T18:29:35.850Z,16.60
2022-11-21T18:32:06.195Z,14.27
2022-11-21T18:34:34.618Z,18.10
2022-11-21T18:37:03.258Z,14.88
2022-11-21T18:39:32.182Z,12.80
2022-11-21T18:42:01.105Z,10.55
2022-11-21T18:44:31.864Z,11.35
2022-11-21T18:47:00.391Z,10.35
2022-11-21T18:49:29.076Z,12.07
2022-11-21T18:51:58.070Z,15.57
2022-11-21T18:54:26.844Z,15.27
2022-11-21T18:56:57.213Z,12.52
2022-11-21T18:59:26.384Z,11.30
2022-11-21T19:01:56.940Z,10.57
2022-11-21T19:04:26.018Z,10.98
2022-11-21T19:06:54.571Z,11.07
2022-11-21T19:09:28.070Z,11.07
2022-11-21T19:11:59.704Z,10.85
2022-11-21T19:14:28.508Z,11.18
2022-11-21T19:16:58.770Z,14.00
2022-11-21T19:19:34.668Z,25.00
2022-11-21T19:22:06.829Z,17.30
2022-11-21T19:24:35.551Z,21.30
2022-11-21T19:27:04.209Z,19.30
2022-11-21T19:29:33.512Z,22.80
2022-11-21T19:32:03.814Z,22.48
2022-11-21T19:34:32.571Z,17.52
2022-11-21T19:37:01.271Z,13.63
2022-11-21T19:39:31.502Z,16.17
2022-11-21T19:42:00.311Z,25.20
2022-11-21T19:44:29.050Z,20.58
2022-11-21T19:46:57.745Z,14.13
2022-11-21T19:49:28.197Z,14.73
2022-11-21T19:51:56.977Z,13.88
2022-11-21T19:54:25.689Z,12.80
2022-11-21T19:56:54.714Z,13.27
2022-11-21T19:59:23.393Z,11.35
2022-11-21T20:01:53.299Z,15.40
2022-11-21T20:04:22.038Z,17.88
2022-11-21T20:06:53.018Z,14.07
2022-11-21T20:09:23.126Z,12.20
2022-11-21T20:11:53.852Z,13.38
2022-11-21T20:14:23.162Z,12.27
2022-11-21T20:16:54.038Z,16.20
2022-11-21T20:19:25.299Z,15.88
2022-11-21T20:21:55.276Z,12.47
2022-11-21T20:24:23.861Z,12.60
2022-11-21T20:26:53.644Z,12.40
2022-11-21T20:29:22.209Z,11.32
2022-11-21T20:31:50.901Z,13.38
2022-11-21T20:34:19.557Z,14.20
2022-11-21T20:36:48.456Z,13.48
2022-11-21T20:39:20.556Z,11.68
2022-11-21T20:41:49.574Z,13.57
2022-11-21T20:47:11.163Z,11.73
2022-11-21T20:49:40.559Z,12.90
2022-11-21T20:54:59.566Z,13.55
2022-11-21T20:57:29.516Z,11.80
2022-11-21T20:59:59.121Z,12.98
2022-11-21T21:02:27.840Z,13.40
2022-11-21T21:04:56.218Z,14.10
2022-11-21T21:07:24.833Z,19.70
2022-11-21T21:09:55.978Z,20.80
2022-11-21T21:12:27.646Z,14.00
2022-11-21T21:14:56.486Z,13.35
2022-11-21T21:17:25.131Z,12.35
2022-11-21T21:19:54.106Z,11.93
2022-11-21T21:22:23.024Z,12.32
2022-11-21T21:24:52.118Z,12.27
2022-11-21T21:27:20.980Z,11.85
2022-11-21T21:29:51.233Z,12.20
2022-11-21T21:32:20.048Z,12.48
2022-11-21T21:34:48.855Z,12.60
2022-11-21T21:37:19.183Z,11.38
2022-11-21T21:39:48.122Z,12.90
2022-11-21T21:42:17.069Z,12.85
2022-11-21T21:44:46.372Z,17.83
2022-11-21T21:47:17.580Z,17.65
2022-11-21T21:49:46.487Z,14.75
2022-11-21T21:52:15.598Z,12.80
2022-11-21T21:54:45.603Z,13.60
2022-11-21T21:57:17.665Z,13.48
2022-11-21T21:59:46.587Z,12.07
2022-11-21T22:02:17.080Z,11.95
2022-11-21T22:04:50.604Z,11.85
2022-11-21T22:07:20.975Z,11.65
2022-11-21T22:09:50.612Z,11.38
2022-11-21T22:12:19.422Z,11.73
2022-11-21T22:14:48.948Z,11.00
2022-11-21T22:17:18.832Z,12.13
2022-11-21T22:19:48.993Z,12.20
2022-11-21T22:22:18.026Z,12.15
2022-11-21T22:24:46.809Z,11.63
2022-11-21T22:27:16.608Z,10.80
2022-11-21T22:29:45.711Z,10.98
2022-11-21T22:32:19.498Z,11.95
2022-11-21T22:34:50.086Z,12.25
2022-11-21T22:37:19.237Z,12.13
2022-11-21T22:39:48.241Z,11.93
2022-11-21T22:42:16.955Z,10.98
2022-11-21T22:44:46.017Z,12.48
2022-11-21T22:47:15.417Z,12.25
2022-11-21T22:49:45.129Z,12.02
2022-11-21T22:52:15.090Z,11.57
2022-11-21T22:54:43.923Z,12.00
2022-11-21T22:57:13.544Z,11.27
2022-11-21T22:59:42.650Z,11.73
2022-11-21T23:02:11.572Z,12.10
2022-11-21T23:04:40.193Z,11.95
2022-11-21T23:07:09.261Z,11.48
2022-11-21T23:09:39.797Z,11.70
2022-11-21T23:12:08.818Z,11.77
2022-11-21T23:14:38.595Z,11.70
2022-11-21T23:17:07.556Z,11.55
2022-11-21T23:19:36.594Z,11.77
2022-11-21T23:22:05.664Z,12.30
2022-11-21T23:24:35.299Z,11.57
2022-11-21T23:27:06.568Z,11.27
2022-11-21T23:29:36.137Z,10.52
2022-11-21T23:32:06.414Z,10.73
2022-11-21T23:34:35.300Z,11.35
2022-11-21T23:37:04.033Z,11.10
2022-11-21T23:39:32.911Z,12.10
2022-11-21T23:42:01.580Z,11.55
2022-11-21T23:44:32.428Z,12.25
2022-11-21T23:47:01.734Z,12.50
2022-11-21T23:49:30.888Z,11.70
2022-11-21T23:51:59.912Z,11.05
2022-11-21T23:54:29.171Z,12.25
2022-11-21T23:56:57.802Z,11.45
2022-11-21T23:59:26.944Z,12.10
